Wetterdaten: Woche 29.01.18 - 04.02.18 (KW5)
Datum Zeit Temp. Aussen Temp. o. S. +5cm Feuchte Auss BlattFeu 1 Luftdruck Regen Sonnenschein Regendauer Solar Windben Empfang
29.01.2018 00:00 9,8 C 9,4 C 8,3 C 94 % 0 lf 1029,0 hPa 0,0 l/m 0,00 h 0,00 h 0 W/m 30,1 km/h (5 Bft) 99,08 %
29.01.2018 01:00 9,7 C 9,4 C 8,4 C 95 % 0 lf 1028,6 hPa 0,0 l/m 0,00 h 0,00 h 0 W/m 31,2 km/h (5 Bft) 94,95 %
29.01.2018 02:00 9,8 C 9,4 C 8,3 C 94 % 0 lf 1028,3 hPa 0,0 l/m 0,00 h 0,00 h 0 W/m 34,8 km/h (5 Bft) 97,51 %
29.01.2018 03:00 9,7 C 9,4 C 8,3 C 95 % 1 lf 1027,8 hPa 0,0 l/m 0,00 h 0,00 h 0 W/m 36,1 km/h (5 Bft) 96,51 %
29.01.2018 04:00 9,8 C 9,8 C 8,8 C 94 % 0 lf 1027,0 hPa 0,0 l/m 0,00 h 0,00 h 0 W/m 33,5 km/h (5 Bft) 95,19 %
29.01.2018 05:00 10,0 C 10,0 C 8,9 C 91 % 0 lf 1026,8 hPa 0,0 l/m 0,00 h 0,00 h 0 W/m 35,6 km/h (5 Bft) 94,31 %
29.01.2018 06:00 10,1 C 10,0 C 8,9 C 89 % 0 lf 1026,6 hPa 0,0 l/m 0,00 h 0,00 h 0 W/m 38,0 km/h (5 Bft) 97,24 %
29.01.2018 07:00 10,1 C 10,0 C 8,9 C 87 % 0 lf 1026,5 hPa 0,0 l/m 0,00 h 0,00 h 0 W/m 38,6 km/h (5 Bft) 93,91 %
29.01.2018 08:00 10,1 C 10,0 C 8,9 C 87 % 0 lf 1026,3 hPa 0,0 l/m 0,00 h 0,00 h 8 W/m 34,3 km/h (5 Bft) 96,99 %
29.01.2018 09:00 10,1 C 10,0 C 8,9 C 87 % 0 lf 1026,0 hPa 0,0 l/m 0,00 h 0,00 h 23 W/m 37,9 km/h (5 Bft) 96,50 %
29.01.2018 10:00 10,2 C 10,0 C 9,0 C 87 % 0 lf 1025,7 hPa 0,0 l/m 0,00 h 0,00 h 33 W/m 37,1 km/h (5 Bft) 94,93 %
29.01.2018 11:00 10,2 C 10,3 C 9,4 C 86 % 0 lf 1025,5 hPa 0,0 l/m 0,00 h 0,00 h 44 W/m 37,7 km/h (5 Bft) 97,63 %
29.01.2018 12:00 10,4 C 10,6 C 9,6 C 85 % 0 lf 1024,8 hPa 0,0 l/m 0,00 h 0,00 h 69 W/m 37,7 km/h (5 Bft) 96,51 %
29.01.2018 13:00 10,4 C 10,5 C 9,4 C 84 % 0 lf 1024,0 hPa 0,0 l/m 0,00 h 0,00 h 45 W/m 37,6 km/h (5 Bft) 95,45 %
29.01.2018 14:00 10,2 C 10,0 C 9,0 C 85 % 1 lf 1023,0 hPa 0,0 l/m 0,00 h 0,10 h 31 W/m 37,6 km/h (5 Bft) 97,79 %
29.01.2018 15:00 9,8 C 9,6 C 8,1 C 87 % 5 lf 1022,2 hPa 0,0 l/m 0,00 h 0,07 h 24 W/m 29,5 km/h (5 Bft) 94,52 %
29.01.2018 16:00 9,9 C 9,7 C 8,7 C 88 % 0 lf 1021,6 hPa 0,0 l/m 0,00 h 0,00 h 29 W/m 36,6 km/h (5 Bft) 97,79 %
29.01.2018 17:00 9,7 C 9,1 C 7,9 C 89 % 4 lf 1021,5 hPa 0,0 l/m 0,00 h 0,20 h 3 W/m 41,8 km/h (6 Bft) 96,23 %
29.01.2018 18:00 9,0 C 8,2 C 7,2 C 93 % 15 lf 1021,6 hPa 0,2 l/m 0,00 h 1,00 h 0 W/m 38,2 km/h (5 Bft) 94,87 %
29.01.2018 19:00 8,8 C 8,2 C 7,3 C 96 % 15 lf 1022,1 hPa 1,8 l/m 0,00 h 1,00 h 0 W/m 35,8 km/h (5 Bft) 97,93 %
29.01.2018 20:00 8,2 C 7,4 C 6,5 C 96 % 15 lf 1024,1 hPa 0,2 l/m 0,00 h 0,80 h 0 W/m 34,6 km/h (5 Bft) 98,01 %
29.01.2018 21:00 7,0 C 5,6 C 4,4 C 94 % 15 lf 1025,4 hPa 0,0 l/m 0,00 h 0,10 h 0 W/m 23,3 km/h (4 Bft) 92,88 %
29.01.2018 22:00 6,1 C 4,9 C 3,5 C 93 % 15 lf 1026,6 hPa 0,0 l/m 0,00 h 0,00 h 0 W/m 15,8 km/h (3 Bft) 98,24 %
29.01.2018 23:00 5,5 C 4,4 C 3,1 C 94 % 15 lf 1027,3 hPa 0,0 l/m 0,00 h 0,00 h 0 W/m 13,2 km/h (3 Bft) 96,71 %
30.01.2018 00:00 4,9 C 3,8 C 2,5 C 94 % 15 lf 1028,1 hPa 0,0 l/m 0,00 h 0,00 h 0 W/m 11,1 km/h (2 Bft) 96,30 %
30.01.2018 01:00 4,3 C 3,0 C 1,6 C 94 % 15 lf 1028,5 hPa 0,0 l/m 0,00 h 0,00 h 0 W/m 7,9 km/h (2 Bft) 96,93 %
30.01.2018 02:00 3,7 C 2,3 C 0,8 C 95 % 15 lf 1028,6 hPa 0,0 l/m 0,00 h 0,00 h 0 W/m 5,9 km/h (2 Bft) 94,52 %
30.01.2018 03:00 3,4 C 2,4 C 1,0 C 95 % 15 lf 1028,5 hPa 0,0 l/m 0,00 h 0,00 h 0 W/m 8,7 km/h (2 Bft) 97,86 %
30.01.2018 04:00 3,0 C 1,8 C 0,3 C 96 % 15 lf 1028,6 hPa 0,0 l/m 0,00 h 0,00 h 0 W/m 7,6 km/h (2 Bft) 97,01 %
30.01.2018 05:00 2,4 C 1,1 C -0,5 C 96 % 15 lf 1028,6 hPa 0,0 l/m 0,00 h 0,00 h 0 W/m 4,0 km/h (1 Bft) 96,91 %
30.01.2018 06:00 1,8 C 1,1 C -0,1 C 96 % 15 lf 1028,8 hPa 0,0 l/m 0,00 h 0,00 h 0 W/m 5,9 km/h (2 Bft) 94,68 %
30.01.2018 07:00 2,1 C 1,7 C 0,7 C 97 % 15 lf 1028,9 hPa 0,0 l/m 0,00 h 0,00 h 0 W/m 7,6 km/h (2 Bft) 97,09 %
30.01.2018 08:00 2,4 C 2,1 C 0,8 C 97 % 15 lf 1029,1 hPa 0,0 l/m 0,00 h 0,00 h 15 W/m 9,6 km/h (2 Bft) 97,51 %
30.01.2018 09:00 2,8 C 3,0 C 1,7 C 97 % 15 lf 1029,1 hPa 0,0 l/m 0,30 h 0,00 h 70 W/m 10,6 km/h (2 Bft) 95,59 %
30.01.2018 10:00 3,4 C 3,7 C 3,1 C 98 % 15 lf 1029,4 hPa 0,0 l/m 0,00 h 0,00 h 86 W/m 12,7 km/h (3 Bft) 95,10 %
30.01.2018 11:00 4,1 C 4,8 C 4,2 C 98 % 11 lf 1029,1 hPa 0,0 l/m 0,27 h 0,00 h 146 W/m 14,1 km/h (3 Bft) 97,01 %
30.01.2018 12:00 5,5 C 8,8 C 5,6 C 99 % 0 lf 1028,5 hPa 0,0 l/m 0,80 h 0,00 h 273 W/m 19,4 km/h (3 Bft) 96,49 %
30.01.2018 13:00 6,5 C 10,8 C 6,1 C 96 % 0 lf 1028,0 hPa 0,0 l/m 0,73 h 0,00 h 253 W/m 16,6 km/h (3 Bft) 96,09 %
30.01.2018 14:00 7,4 C 9,8 C 6,4 C 89 % 0 lf 1027,1 hPa 0,0 l/m 0,57 h 0,00 h 171 W/m 13,1 km/h (3 Bft) 95,88 %
30.01.2018 15:00 7,4 C 9,6 C 6,4 C 85 % 0 lf 1026,4 hPa 0,0 l/m 1,00 h 0,00 h 154 W/m 12,3 km/h (3 Bft) 97,16 %
30.01.2018 16:00 7,2 C 7,4 C 5,7 C 84 % 0 lf 1025,7 hPa 0,0 l/m 0,47 h 0,00 h 60 W/m 5,9 km/h (2 Bft) 95,37 %
30.01.2018 17:00 6,6 C 5,3 C 3,0 C 84 % 0 lf 1024,8 hPa 0,0 l/m 0,13 h 0,00 h 12 W/m 5,1 km/h (1 Bft) 96,66 %
30.01.2018 18:00 5,2 C 3,8 C 0,9 C 87 % 1 lf 1024,1 hPa 0,0 l/m 0,00 h 0,00 h 0 W/m 4,7 km/h (1 Bft) 98,50 %
30.01.2018 19:00 4,3 C 4,0 C 1,5 C 90 % 0 lf 1023,1 hPa 0,0 l/m 0,00 h 0,00 h 0 W/m 6,6 km/h (2 Bft) 93,96 %
30.01.2018 20:00 4,2 C 4,0 C 2,1 C 92 % 0 lf 1022,4 hPa 0,0 l/m 0,00 h 0,00 h 0 W/m 7,2 km/h (2 Bft) 96,69 %
30.01.2018 21:00 3,8 C 3,2 C 1,1 C 92 % 0 lf 1021,5 hPa 0,0 l/m 0,00 h 0,00 h 0 W/m 6,0 km/h (2 Bft) 97,47 %
30.01.2018 22:00 3,8 C 4,1 C 2,6 C 93 % 0 lf 1020,5 hPa 0,0 l/m 0,00 h 0,00 h 0 W/m 10,2 km/h (2 Bft) 96,90 %
30.01.2018 23:00 4,4 C 4,5 C 3,3 C 92 % 0 lf 1019,1 hPa 0,0 l/m 0,00 h 0,00 h 0 W/m 12,9 km/h (3 Bft) 95,21 %
31.01.2018 00:00 4,8 C 4,8 C 3,5 C 91 % 0 lf 1018,0 hPa 0,0 l/m 0,00 h 0,00 h 0 W/m 10,4 km/h (2 Bft) 96,23 %
31.01.2018 01:00 5,3 C 5,4 C 4,3 C 92 % 1 lf 1016,8 hPa 0,0 l/m 0,00 h 0,10 h 0 W/m 13,8 km/h (3 Bft) 97,79 %
31.01.2018 02:00 6,3 C 6,0 C 4,9 C 94 % 4 lf 1015,3 hPa 0,2 l/m 0,00 h 0,30 h 0 W/m 16,1 km/h (3 Bft) 96,29 %
31.01.2018 03:00 7,3 C 7,1 C 6,0 C 97 % 13 lf 1013,6 hPa 0,2 l/m 0,00 h 0,53 h 0 W/m 16,2 km/h (3 Bft) 95,52 %
31.01.2018 04:00 8,8 C 8,3 C 7,2 C 98 % 15 lf 1012,2 hPa 0,2 l/m 0,00 h 0,65 h 0 W/m 25,5 km/h (4 Bft) 96,21 %
31.01.2018 05:00 9,1 C 8,5 C 7,6 C 98 % 15 lf 1011,1 hPa 0,0 l/m 0,00 h 0,47 h 0 W/m 29,7 km/h (5 Bft) 97,95 %
31.01.2018 06:00 9,3 C 8,6 C 7,8 C 97 % 15 lf 1010,3 hPa 0,0 l/m 0,00 h 0,90 h 0 W/m 30,9 km/h (5 Bft) 96,70 %
31.01.2018 07:00 9,3 C 8,3 C 7,6 C 97 % 15 lf 1009,7 hPa 0,4 l/m 0,00 h 0,97 h 0 W/m 32,4 km/h (5 Bft) 96,17 %
31.01.2018 08:00 9,1 C 8,3 C 7,2 C 97 % 15 lf 1008,5 hPa 0,2 l/m 0,00 h 0,93 h 9 W/m 34,9 km/h (5 Bft) 95,74 %
31.01.2018 09:00 9,2 C 8,6 C 7,5 C 95 % 11 lf 1007,5 hPa 0,0 l/m 0,00 h 0,90 h 24 W/m 37,7 km/h (5 Bft) 98,98 %
31.01.2018 10:00 9,5 C 9,5 C 7,8 C 92 % 0 lf 1006,6 hPa 0,0 l/m 0,00 h 0,57 h 59 W/m 39,5 km/h (6 Bft) 94,46 %
31.01.2018 11:00 9,3 C 8,9 C 7,4 C 91 % 1 lf 1005,8 hPa 0,0 l/m 0,00 h 0,50 h 52 W/m 38,8 km/h (5 Bft) 96,88 %
31.01.2018 12:00 8,8 C 8,5 C 7,1 C 93 % 5 lf 1004,4 hPa 0,0 l/m 0,00 h 0,67 h 44 W/m 40,8 km/h (6 Bft) 97,35 %
31.01.2018 13:00 8,6 C 7,6 C 6,6 C 93 % 15 lf 1003,3 hPa 2,2 l/m 0,00 h 1,00 h 40 W/m 39,7 km/h (6 Bft) 96,44 %
31.01.2018 14:00 7,9 C 6,9 C 6,1 C 94 % 15 lf 1002,2 hPa 1,2 l/m 0,00 h 1,00 h 44 W/m 38,8 km/h (5 Bft) 95,15 %
31.01.2018 15:00 7,1 C 6,1 C 5,4 C 94 % 15 lf 1001,6 hPa 2,0 l/m 0,00 h 1,00 h 24 W/m 36,1 km/h (5 Bft) 97,94 %
31.01.2018 16:00 6,4 C 5,6 C 4,6 C 93 % 15 lf 1000,5 hPa 0,2 l/m 0,00 h 0,97 h 14 W/m 33,0 km/h (5 Bft) 95,44 %
31.01.2018 17:00 6,2 C 5,0 C 4,0 C 90 % 15 lf 999,9 hPa 0,2 l/m 0,00 h 0,97 h 0 W/m 32,4 km/h (5 Bft) 98,65 %
31.01.2018 18:00 5,1 C 4,0 C 3,2 C 92 % 15 lf 1000,4 hPa 0,6 l/m 0,00 h 0,97 h 0 W/m 21,1 km/h (4 Bft) 94,43 %
31.01.2018 19:00 4,2 C 3,3 C 2,7 C 94 % 15 lf 999,7 hPa 0,2 l/m 0,00 h 0,10 h 0 W/m 12,2 km/h (2 Bft) 96,37 %
31.01.2018 20:00 4,0 C 3,3 C 2,4 C 95 % 15 lf 999,7 hPa 0,0 l/m 0,00 h 0,00 h 0 W/m 14,1 km/h (3 Bft) 98,72 %
31.01.2018 21:00 3,9 C 3,3 C 2,6 C 96 % 15 lf 999,5 hPa 0,0 l/m 0,00 h 0,00 h 0 W/m 20,8 km/h (4 Bft) 94,95 %
31.01.2018 22:00 4,1 C 3,3 C 2,5 C 96 % 11 lf 999,4 hPa 0,0 l/m 0,00 h 0,00 h 0 W/m 18,6 km/h (3 Bft) 95,95 %
31.01.2018 23:00 3,8 C 3,0 C 1,8 C 95 % 2 lf 999,4 hPa 0,0 l/m 0,00 h 0,00 h 0 W/m 19,3 km/h (3 Bft) 97,36 %
01.02.2018 00:00 3,1 C 2,3 C 0,8 C 93 % 0 lf 999,5 hPa 0,0 l/m 0,00 h 0,00 h 0 W/m 13,7 km/h (3 Bft) 96,17 %
01.02.2018 01:00 2,7 C 2,3 C 0,9 C 94 % 0 lf 999,5 hPa 0,0 l/m 0,00 h 0,00 h 0 W/m 16,6 km/h (3 Bft) 98,15 %
01.02.2018 02:00 2,7 C 2,4 C 0,7 C 93 % 0 lf 999,4 hPa 0,0 l/m 0,00 h 0,00 h 0 W/m 21,9 km/h (4 Bft) 95,80 %
01.02.2018 03:00 2,4 C 1,9 C 0,1 C 91 % 0 lf 999,2 hPa 0,0 l/m 0,00 h 0,00 h 0 W/m 17,0 km/h (3 Bft) 96,01 %
01.02.2018 04:00 2,0 C 1,5 C -0,2 C 91 % 0 lf 999,0 hPa 0,0 l/m 0,00 h 0,00 h 0 W/m 15,5 km/h (3 Bft) 97,31 %
01.02.2018 05:00 1,8 C 1,2 C -0,4 C 92 % 0 lf 998,9 hPa 0,0 l/m 0,00 h 0,00 h 0 W/m 15,8 km/h (3 Bft) 97,44 %
01.02.2018 06:00 1,6 C 1,1 C -0,6 C 92 % 0 lf 998,6 hPa 0,0 l/m 0,00 h 0,00 h 0 W/m 15,0 km/h (3 Bft) 95,66 %
01.02.2018 07:00 1,3 C 0,7 C -1,1 C 93 % 0 lf 998,9 hPa 0,0 l/m 0,00 h 0,00 h 0 W/m 9,8 km/h (2 Bft) 94,60 %
01.02.2018 08:00 1,0 C 0,9 C -0,9 C 93 % 0 lf 999,0 hPa 0,2 l/m 0,00 h 0,00 h 21 W/m 12,3 km/h (3 Bft) 97,63 %
01.02.2018 09:00 1,7 C 2,7 C 0,8 C 94 % 0 lf 999,1 hPa 0,0 l/m 0,87 h 0,00 h 113 W/m 19,4 km/h (3 Bft) 98,07 %
01.02.2018 10:00 3,0 C 3,9 C 2,5 C 92 % 0 lf 999,2 hPa 0,0 l/m 0,13 h 0,00 h 90 W/m 22,5 km/h (4 Bft) 95,06 %
01.02.2018 11:00 4,0 C 5,4 C 4,1 C 88 % 0 lf 999,2 hPa 0,0 l/m 0,20 h 0,00 h 172 W/m 29,7 km/h (5 Bft) 97,63 %
01.02.2018 12:00 4,3 C 4,6 C 3,6 C 85 % 0 lf 998,9 hPa 0,0 l/m 0,00 h 0,17 h 81 W/m 30,2 km/h (5 Bft) 95,16 %
01.02.2018 13:00 4,5 C 4,8 C 4,0 C 85 % 0 lf 998,5 hPa 0,0 l/m 0,00 h 0,03 h 102 W/m 33,3 km/h (5 Bft) 97,51 %
01.02.2018 14:00 4,0 C 3,8 C 2,7 C 89 % 13 lf 998,5 hPa 0,0 l/m 0,00 h 0,90 h 60 W/m 33,4 km/h (5 Bft) 96,00 %
01.02.2018 15:00 3,5 C 3,4 C 2,2 C 92 % 15 lf 999,0 hPa 0,2 l/m 0,03 h 0,60 h 50 W/m 30,6 km/h (5 Bft) 95,23 %
01.02.2018 16:00 3,7 C 3,9 C 2,3 C 92 % 3 lf 999,6 hPa 0,0 l/m 0,37 h 0,13 h 64 W/m 19,5 km/h (3 Bft) 97,39 %
01.02.2018 17:00 3,1 C 2,6 C 1,1 C 91 % 0 lf 999,9 hPa 0,0 l/m 0,00 h 0,00 h 9 W/m 16,2 km/h (3 Bft) 98,79 %
01.02.2018 18:00 2,7 C 2,2 C 0,7 C 92 % 0 lf 1000,5 hPa 0,0 l/m 0,00 h 0,00 h 0 W/m 14,1 km/h (3 Bft) 92,47 %
01.02.2018 19:00 2,3 C 1,8 C 0,2 C 92 % 0 lf 1001,0 hPa 0,0 l/m 0,00 h 0,00 h 0 W/m 16,5 km/h (3 Bft) 98,21 %
01.02.2018 20:00 2,1 C 1,8 C 0,2 C 91 % 1 lf 1001,4 hPa 0,0 l/m 0,00 h 0,10 h 0 W/m 23,7 km/h (4 Bft) 96,72 %
01.02.2018 21:00 1,8 C 1,3 C 0,1 C 93 % 0 lf 1001,2 hPa 0,0 l/m 0,00 h 0,00 h 0 W/m 15,4 km/h (3 Bft) 96,37 %
01.02.2018 22:00 1,8 C 1,7 C 0,4 C 93 % 0 lf 1001,1 hPa 0,0 l/m 0,00 h 0,00 h 0 W/m 18,2 km/h (3 Bft) 96,73 %
01.02.2018 23:00 1,9 C 1,8 C 0,5 C 92 % 0 lf 1001,2 hPa 0,0 l/m 0,00 h 0,00 h 0 W/m 22,5 km/h (4 Bft) 95,37 %
02.02.2018 00:00 2,2 C 2,0 C 0,7 C 91 % 0 lf 1001,1 hPa 0,0 l/m 0,00 h 0,00 h 0 W/m 18,0 km/h (3 Bft) 96,94 %
02.02.2018 01:00 2,6 C 2,7 C 1,6 C 91 % 0 lf 1000,7 hPa 0,0 l/m 0,00 h 0,00 h 0 W/m 22,6 km/h (4 Bft) 96,87 %
02.02.2018 02:00 2,8 C 2,8 C 1,6 C 91 % 0 lf 1000,3 hPa 0,0 l/m 0,00 h 0,00 h 0 W/m 22,4 km/h (4 Bft) 97,08 %
02.02.2018 03:00 2,9 C 2,3 C 1,2 C 92 % 14 lf 1000,1 hPa 0,4 l/m 0,00 h 0,80 h 0 W/m 27,4 km/h (4 Bft) 93,74 %
02.02.2018 04:00 2,8 C 2,2 C 1,5 C 95 % 15 lf 999,9 hPa 0,4 l/m 0,00 h 0,93 h 0 W/m 30,6 km/h (5 Bft) 96,47 %
02.02.2018 05:00 2,9 C 2,6 C 1,7 C 96 % 15 lf 1000,0 hPa 0,0 l/m 0,00 h 0,37 h 0 W/m 28,0 km/h (4 Bft) 98,04 %
02.02.2018 06:00 3,1 C 2,8 C 1,7 C 96 % 15 lf 999,9 hPa 0,0 l/m 0,00 h 0,03 h 0 W/m 31,2 km/h (5 Bft) 95,85 %
02.02.2018 07:00 3,2 C 2,8 C 1,7 C 96 % 7 lf 999,8 hPa 0,0 l/m 0,00 h 0,07 h 0 W/m 30,1 km/h (5 Bft) 95,19 %
02.02.2018 08:00 3,3 C 3,1 C 1,7 C 95 % 3 lf 999,8 hPa 0,0 l/m 0,00 h 0,33 h 16 W/m 32,1 km/h (5 Bft) 98,15 %
02.02.2018 09:00 3,2 C 2,9 C 1,8 C 95 % 14 lf 1000,1 hPa 0,2 l/m 0,00 h 0,97 h 16 W/m 30,3 km/h (5 Bft) 95,37 %
02.02.2018 10:00 3,1 C 3,0 C 2,1 C 96 % 15 lf 1000,6 hPa 0,2 l/m 0,00 h 0,87 h 50 W/m 24,3 km/h (4 Bft) 96,58 %
02.02.2018 11:00 3,7 C 3,8 C 3,0 C 97 % 15 lf 1001,2 hPa 0,2 l/m 0,00 h 0,63 h 72 W/m 18,0 km/h (3 Bft) 96,03 %
02.02.2018 12:00 4,7 C 6,3 C 4,5 C 97 % 14 lf 1001,5 hPa 0,0 l/m 0,13 h 0,07 h 160 W/m 18,3 km/h (3 Bft) 96,11 %
02.02.2018 13:00 5,9 C 8,5 C 5,3 C 96 % 1 lf 1001,5 hPa 0,0 l/m 0,20 h 0,00 h 180 W/m 14,3 km/h (3 Bft) 96,83 %
02.02.2018 14:00 5,8 C 6,5 C 4,6 C 92 % 0 lf 1001,9 hPa 0,0 l/m 0,03 h 0,00 h 115 W/m 15,9 km/h (3 Bft) 96,22 %
02.02.2018 15:00 5,2 C 5,9 C 3,9 C 91 % 0 lf 1002,6 hPa 0,0 l/m 0,30 h 0,00 h 100 W/m 16,5 km/h (3 Bft) 95,94 %
02.02.2018 16:00 4,6 C 4,4 C 3,2 C 92 % 0 lf 1003,4 hPa 0,0 l/m 0,00 h 0,00 h 28 W/m 13,3 km/h (3 Bft) 99,29 %
02.02.2018 17:00 4,4 C 4,1 C 2,8 C 94 % 0 lf 1004,1 hPa 0,0 l/m 0,00 h 0,00 h 6 W/m 14,0 km/h (3 Bft) 94,44 %
02.02.2018 18:00 4,1 C 3,6 C 2,5 C 95 % 0 lf 1004,8 hPa 0,0 l/m 0,00 h 0,00 h 0 W/m 10,5 km/h (2 Bft) 95,80 %
02.02.2018 19:00 3,5 C 2,8 C 1,7 C 95 % 0 lf 1005,3 hPa 0,0 l/m 0,00 h 0,00 h 0 W/m 11,0 km/h (2 Bft) 97,22 %
02.02.2018 20:00 3,4 C 3,1 C 1,9 C 96 % 0 lf 1006,0 hPa 0,0 l/m 0,00 h 0,00 h 0 W/m 13,8 km/h (3 Bft) 95,94 %
02.02.2018 21:00 3,3 C 3,2 C 2,0 C 96 % 2 lf 1006,4 hPa 0,0 l/m 0,00 h 0,03 h 0 W/m 7,6 km/h (2 Bft) 96,94 %
02.02.2018 22:00 3,4 C 3,3 C 2,2 C 96 % 1 lf 1006,8 hPa 0,0 l/m 0,00 h 0,00 h 0 W/m 10,1 km/h (2 Bft) 96,66 %
02.02.2018 23:00 3,4 C 3,2 C 2,0 C 96 % 0 lf 1007,0 hPa 0,0 l/m 0,00 h 0,00 h 0 W/m 11,7 km/h (2 Bft) 95,37 %
03.02.2018 00:00 3,2 C 2,7 C 1,6 C 95 % 0 lf 1007,1 hPa 0,0 l/m 0,00 h 0,00 h 0 W/m 8,0 km/h (2 Bft) 97,55 %
03.02.2018 01:00 2,9 C 2,8 C 1,7 C 95 % 0 lf 1007,0 hPa 0,0 l/m 0,00 h 0,00 h 0 W/m 8,2 km/h (2 Bft) 96,87 %
03.02.2018 02:00 2,8 C 2,4 C 1,3 C 95 % 0 lf 1007,1 hPa 0,0 l/m 0,00 h 0,00 h 0 W/m 8,0 km/h (2 Bft) 92,90 %
03.02.2018 03:00 2,6 C 2,2 C 1,1 C 95 % 0 lf 1007,2 hPa 0,0 l/m 0,00 h 0,00 h 0 W/m 6,3 km/h (2 Bft) 99,16 %
03.02.2018 04:00 2,5 C 2,2 C 1,1 C 95 % 0 lf 1007,1 hPa 0,0 l/m 0,00 h 0,00 h 0 W/m 10,0 km/h (2 Bft) 96,33 %
03.02.2018 05:00 2,3 C 1,8 C 0,9 C 95 % 0 lf 1006,8 hPa 0,0 l/m 0,00 h 0,00 h 0 W/m 7,2 km/h (2 Bft) 96,97 %
03.02.2018 06:00 2,0 C 1,6 C 0,6 C 95 % 0 lf 1006,5 hPa 0,0 l/m 0,00 h 0,00 h 0 W/m 6,6 km/h (2 Bft) 94,85 %
03.02.2018 07:00 1,7 C 1,1 C 0,3 C 95 % 1 lf 1006,2 hPa 0,0 l/m 0,00 h 0,00 h 0 W/m 7,7 km/h (2 Bft) 96,35 %
03.02.2018 08:00 1,4 C 0,8 C -0,1 C 96 % 2 lf 1006,2 hPa 0,0 l/m 0,00 h 0,00 h 17 W/m 9,2 km/h (2 Bft) 96,69 %
03.02.2018 09:00 1,6 C 2,6 C 1,3 C 96 % 0 lf 1006,2 hPa 0,0 l/m 0,30 h 0,00 h 83 W/m 10,5 km/h (2 Bft) 96,58 %
03.02.2018 10:00 2,6 C 6,9 C 2,2 C 97 % 0 lf 1005,8 hPa 0,0 l/m 0,50 h 0,00 h 176 W/m 11,6 km/h (2 Bft) 96,77 %
03.02.2018 11:00 3,8 C 6,8 C 3,7 C 96 % 0 lf 1005,8 hPa 0,0 l/m 0,30 h 0,00 h 170 W/m 18,0 km/h (3 Bft) 97,79 %
03.02.2018 12:00 4,3 C 5,6 C 4,7 C 91 % 0 lf 1005,4 hPa 0,0 l/m 0,00 h 0,00 h 159 W/m 18,8 km/h (3 Bft) 96,45 %
03.02.2018 13:00 4,5 C 5,0 C 4,1 C 89 % 0 lf 1005,1 hPa 0,0 l/m 0,00 h 0,00 h 81 W/m 16,6 km/h (3 Bft) 94,68 %
03.02.2018 14:00 4,4 C 4,9 C 4,2 C 89 % 0 lf 1004,7 hPa 0,0 l/m 0,00 h 0,00 h 74 W/m 15,5 km/h (3 Bft) 97,19 %
03.02.2018 15:00 4,6 C 5,4 C 4,5 C 89 % 0 lf 1004,6 hPa 0,0 l/m 0,20 h 0,00 h 104 W/m 11,4 km/h (2 Bft) 98,51 %
03.02.2018 16:00 4,4 C 4,3 C 3,3 C 89 % 0 lf 1004,5 hPa 0,0 l/m 0,00 h 0,00 h 28 W/m 10,3 km/h (2 Bft) 93,59 %
03.02.2018 17:00 4,0 C 3,5 C 2,4 C 89 % 0 lf 1004,8 hPa 0,0 l/m 0,00 h 0,00 h 10 W/m 10,4 km/h (2 Bft) 97,58 %
03.02.2018 18:00 3,6 C 3,1 C 2,1 C 91 % 0 lf 1005,3 hPa 0,0 l/m 0,00 h 0,00 h 0 W/m 9,2 km/h (2 Bft) 96,51 %
03.02.2018 19:00 2,9 C 2,0 C 1,2 C 92 % 0 lf 1005,7 hPa 0,0 l/m 0,00 h 0,00 h 0 W/m 5,1 km/h (1 Bft) 97,08 %
03.02.2018 20:00 2,4 C 2,1 C 1,3 C 93 % 0 lf 1006,2 hPa 0,0 l/m 0,00 h 0,00 h 0 W/m 4,7 km/h (1 Bft) 96,15 %
03.02.2018 21:00 2,4 C 1,8 C 0,8 C 94 % 0 lf 1006,7 hPa 0,0 l/m 0,00 h 0,00 h 0 W/m 3,5 km/h (1 Bft) 95,59 %
03.02.2018 22:00 2,1 C 1,4 C 0,7 C 94 % 1 lf 1007,3 hPa 0,0 l/m 0,00 h 0,00 h 0 W/m 3,8 km/h (1 Bft) 96,80 %
03.02.2018 23:00 2,1 C 1,9 C 1,2 C 94 % 0 lf 1008,1 hPa 0,0 l/m 0,00 h 0,00 h 0 W/m 4,6 km/h (1 Bft) 96,30 %
04.02.2018 00:00 1,7 C 1,5 C 0,7 C 94 % 0 lf 1008,9 hPa 0,0 l/m 0,00 h 0,00 h 0 W/m 24,5 km/h (4 Bft) 97,62 %
04.02.2018 01:00 0,6 C 0,4 C -0,7 C 94 % 12 lf 1010,0 hPa 0,0 l/m 0,00 h 0,07 h 0 W/m 23,1 km/h (4 Bft) 93,92 %
04.02.2018 02:00 0,1 C 0,0 C -1,1 C 94 % 12 lf 1011,0 hPa 0,0 l/m 0,00 h 0,00 h 0 W/m 23,5 km/h (4 Bft) 96,83 %
04.02.2018 03:00 -0,0 C 0,0 C -1,1 C 90 % 0 lf 1011,7 hPa 0,0 l/m 0,00 h 0,07 h 0 W/m 23,3 km/h (4 Bft) 97,23 %
04.02.2018 04:00 -0,2 C -0,1 C -1,1 C 88 % 0 lf 1012,6 hPa 0,0 l/m 0,00 h 0,00 h 0 W/m 23,1 km/h (4 Bft) 96,60 %
04.02.2018 05:00 -0,4 C -0,6 C -1,2 C 86 % 0 lf 1013,8 hPa 0,0 l/m 0,00 h 0,00 h 0 W/m 24,1 km/h (4 Bft) 95,08 %
04.02.2018 06:00 -0,6 C -0,6 C -1,7 C 81 % 0 lf 1014,7 hPa 0,0 l/m 0,00 h 0,00 h 0 W/m 20,8 km/h (4 Bft) 98,80 %
04.02.2018 07:00 -0,5 C -0,6 C -1,5 C 81 % 0 lf 1015,6 hPa 0,0 l/m 0,00 h 0,00 h 0 W/m 15,9 km/h (3 Bft) 95,23 %
04.02.2018 08:00 -0,3 C -0,5 C -1,1 C 83 % 0 lf 1016,5 hPa 0,0 l/m 0,00 h 0,00 h 10 W/m 11,8 km/h (2 Bft) 95,90 %
04.02.2018 09:00 -0,1 C 1,3 C -0,4 C 85 % 0 lf 1017,1 hPa 0,0 l/m 0,13 h 0,00 h 86 W/m 9,2 km/h (2 Bft) 95,88 %
04.02.2018 10:00 0,5 C 2,6 C 0,6 C 85 % 0 lf 1017,7 hPa 0,0 l/m 0,37 h 0,00 h 120 W/m 17,0 km/h (3 Bft) 96,01 %
04.02.2018 11:00 0,5 C 0,9 C -0,7 C 87 % 14 lf 1018,4 hPa 0,0 l/m 0,00 h 0,50 h 48 W/m 9,8 km/h (2 Bft) 97,30 %
04.02.2018 12:00 0,4 C 0,8 C -1,1 C 92 % 15 lf 1018,7 hPa 0,2 l/m 0,00 h 0,27 h 58 W/m 13,4 km/h (3 Bft) 96,86 %
04.02.2018 13:00 0,3 C 0,6 C -0,8 C 94 % 15 lf 1019,3 hPa 0,0 l/m 0,00 h 0,20 h 43 W/m 17,7 km/h (3 Bft) 94,02 %
04.02.2018 14:00 0,4 C 1,6 C -0,0 C 94 % 15 lf 1019,9 hPa 0,0 l/m 0,10 h 0,07 h 99 W/m 18,0 km/h (3 Bft) 99,18 %
04.02.2018 15:00 0,7 C 1,5 C -0,0 C 92 % 15 lf 1020,6 hPa 0,2 l/m 0,00 h 0,00 h 64 W/m 19,8 km/h (3 Bft) 96,07 %
04.02.2018 16:00 0,6 C 0,7 C -1,0 C 88 % 10 lf 1021,2 hPa 0,0 l/m 0,00 h 0,03 h 27 W/m 17,6 km/h (3 Bft) 95,61 %
04.02.2018 17:00 0,3 C 0,0 C -1,1 C 87 % 1 lf 1021,7 hPa 0,2 l/m 0,07 h 0,00 h 13 W/m 12,4 km/h (3 Bft) 96,46 %
04.02.2018 18:00 0,2 C 0,0 C -1,1 C 88 % 2 lf 1022,0 hPa 0,0 l/m 0,00 h 0,00 h 0 W/m 15,2 km/h (3 Bft) 96,05 %
04.02.2018 19:00 0,2 C 0,0 C -1,1 C 89 % 3 lf 1022,7 hPa 0,0 l/m 0,00 h 0,00 h 0 W/m 15,3 km/h (3 Bft) 97,30 %
04.02.2018 20:00 -0,1 C -0,2 C -1,3 C 90 % 1 lf 1023,2 hPa 0,0 l/m 0,00 h 0,00 h 0 W/m 17,2 km/h (3 Bft) 97,63 %
04.02.2018 21:00 -0,5 C -1,0 C -2,0 C 91 % 0 lf 1023,7 hPa 0,0 l/m 0,00 h 0,00 h 0 W/m 12,2 km/h (3 Bft) 93,48 %
04.02.2018 22:00 -0,7 C -1,3 C -2,3 C 92 % 0 lf 1024,2 hPa 0,0 l/m 0,00 h 0,00 h 0 W/m 15,6 km/h (3 Bft) 97,43 %
04.02.2018 23:00 -1,1 C -2,1 C -3,1 C 91 % 0 lf 1024,4 hPa 0,0 l/m 0,00 h 0,00 h 0 W/m 11,7 km/h (2 Bft) 96,81 %
Min-Datum _ 04.02.18 04.02.18 04.02.18 04.02.18 29.01.18 01.02.18 - - - - 30.01.18 29.01.18
_ Min-Zeit 23:58 23:08 23:24 06:18 00:00 13:24 - - - - 02:04 05:42
Minimum _ -1,4 C -2,2 C -3,3 C 80 % 0 lf 998,4 hPa - - - - 0,0 km/h (0 Bft) 4,76 %
Max-Datum _ 29.01.18 30.01.18 29.01.18 30.01.18 29.01.18 30.01.18 31.01.18 01.02.18 31.01.18 01.02.18 29.01.18 29.01.18
_ Max-Zeit 12:14 13:56 12:14 12:00 15:12 10:34 13:12 16:08 06:08 11:52 17:10 00:02
Maximum _ 10,4 C 12,8 C 10,0 C 99 % 15 lf 1029,5 hPa 2,2 l/m 0,07 h 0,07 h 475 W/m 60,8 km/h
W-SW (7 Bft)
100,00 %
Durchschnitt _ 4,3 C 4,2 C 2,9 C 92 % 5 lf 1012,0 hPa #12,4 l/m #8:30 h #24:59 h 70 W/m 19,5 km/h (3 Bft) 96,42 %
© 2018 W. Hausmann